Mississippi River (Missouri), Chester (07020500)

StateMissouriLatestUnknown (373000 cfs)
RiverMississippi RiverRatingObservedEstimated
Updated2024-06-15 0:00 (24 minutes ago)Flood - The river is flooding. Obstacles can be treacherous or deadly. The river should be avoided at this stage for casual trips and definitely for the inexperienced. Trips should be attempted only with protective gear and equipment.Flood(none)(none)
Discharge373000 cfs (median: 274000 cfs)High - The river is high and potentially dangerous, especially for the young and / or inexperienced. Normal stream obstacles are sometimes difficult to navigate. Extended distances can be attempted, but canoe travel may not be advisable.High(none)(none)
Height24.61 feetGood - Conditions are ideal for a canoe or kayak. Boats typically will drag on fewer than one-quarter of riffles, if at all, and portages are unnecessary or rare. Normal float lengths can be attempted without a problem.Good(none)(none)
TrendSteady (falling over 24 hours)Low - River is low but can still be floated. Some riffles are okay but most come with significant dragging and might need a portage. Float lengths should be reduced to accommodate low flow, dragging, and portages.Low(none)(none)
USGSExternal icon USGS Site (External icon Duck Duck Go Maps)Poor - River is too low to float comfortably. Most or all riffles will drag or must be portaged and some obstacles (such as slick shelf rock) cause undue problems. Avoid the river at this stage for casual paddling trips.Poor(none)(none)

Trending Data

Plot Image

Trips for Mississippi River (Missouri), Chester (07020500)

DateStartEndDistanceConditionDischargeHeightFishingDetails

A total of 0 rows are displayed.

Condition Descriptions

Fishing Conditions

Fish Species

Notes

Classic Trip List

The classic River Trips application is still available for use. It is updated with the new system using a data retrofit. It is no longer maintained. The original River Trips application is no longer updated (as of 1 Dec 2016) but can be checked for errors or for the condition of the data before it was converted to the new system.

Gauge Data Table

ObservationHeightDischargeMaximum
Discharge
Minimum
Discharge
Mean
Discharge
P05P10P20P25P50
(Median)
P75P80P90P95
2024-06-15 00:00 24.61 373000 888000 (2019) 72900 (1988) 309000 104000 126000 174000 182000 274000 401000 445000 519000 586000
2024-06-14 23:30 24.59 373000 888000 (2019) 72900 (1988) 309000 104000 126000 174000 182000 274000 401000 445000 519000 586000
2024-06-14 23:00 24.61 373000 888000 (2019) 72900 (1988) 309000 104000 126000 174000 182000 274000 401000 445000 519000 586000
2024-06-14 22:30 24.69 375000 906000 (2019) 77000 (1988) 309000 106000 126000 171000 184000 275000 419000 439000 528000 598000
2024-06-14 22:00 24.62 373000 906000 (2019) 77000 (1988) 309000 106000 126000 171000 184000 275000 419000 439000 528000 598000
2024-06-14 21:30 24.64 374000 906000 (2019) 77000 (1988) 309000 106000 126000 171000 184000 275000 419000 439000 528000 598000
2024-06-14 21:00 24.67 374000 906000 (2019) 77000 (1988) 309000 106000 126000 171000 184000 275000 419000 439000 528000 598000
2024-06-14 20:30 24.59 373000 906000 (2019) 77000 (1988) 309000 106000 126000 171000 184000 275000 419000 439000 528000 598000
2024-06-14 20:00 24.76 376000 906000 (2019) 77000 (1988) 309000 106000 126000 171000 184000 275000 419000 439000 528000 598000
2024-06-14 19:30 24.81 377000 906000 (2019) 77000 (1988) 309000 106000 126000 171000 184000 275000 419000 439000 528000 598000
2024-06-14 19:00 24.76 376000 906000 (2019) 77000 (1988) 309000 106000 126000 171000 184000 275000 419000 439000 528000 598000
2024-06-14 18:30 24.88 378000 906000 (2019) 77000 (1988) 309000 106000 126000 171000 184000 275000 419000 439000 528000 598000
2024-06-14 18:00 24.87 378000 906000 (2019) 77000 (1988) 309000 106000 126000 171000 184000 275000 419000 439000 528000 598000
2024-06-14 17:30 24.85 378000 906000 (2019) 77000 (1988) 309000 106000 126000 171000 184000 275000 419000 439000 528000 598000
2024-06-14 17:00 24.73 375000 906000 (2019) 77000 (1988) 309000 106000 126000 171000 184000 275000 419000 439000 528000 598000
2024-06-14 16:30 24.83 377000 906000 (2019) 77000 (1988) 309000 106000 126000 171000 184000 275000 419000 439000 528000 598000
2024-06-14 16:00 24.87 378000 906000 (2019) 77000 (1988) 309000 106000 126000 171000 184000 275000 419000 439000 528000 598000
2024-06-14 15:30 24.88 378000 906000 (2019) 77000 (1988) 309000 106000 126000 171000 184000 275000 419000 439000 528000 598000
2024-06-14 15:00 24.86 378000 906000 (2019) 77000 (1988) 309000 106000 126000 171000 184000 275000 419000 439000 528000 598000
2024-06-14 14:30 24.88 378000 906000 (2019) 77000 (1988) 309000 106000 126000 171000 184000 275000 419000 439000 528000 598000
2024-06-14 14:00 24.84 377000 906000 (2019) 77000 (1988) 309000 106000 126000 171000 184000 275000 419000 439000 528000 598000
2024-06-14 13:30 24.80 377000 906000 (2019) 77000 (1988) 309000 106000 126000 171000 184000 275000 419000 439000 528000 598000
2024-06-14 13:00 24.87 378000 906000 (2019) 77000 (1988) 309000 106000 126000 171000 184000 275000 419000 439000 528000 598000
2024-06-14 12:30 24.87 378000 906000 (2019) 77000 (1988) 309000 106000 126000 171000 184000 275000 419000 439000 528000 598000
2024-06-14 12:00 24.71 375000 906000 (2019) 77000 (1988) 309000 106000 126000 171000 184000 275000 419000 439000 528000 598000
2024-06-14 11:30 24.83 377000 906000 (2019) 77000 (1988) 309000 106000 126000 171000 184000 275000 419000 439000 528000 598000
2024-06-14 11:00 24.81 377000 906000 (2019) 77000 (1988) 309000 106000 126000 171000 184000 275000 419000 439000 528000 598000
2024-06-14 10:30 24.80 377000 906000 (2019) 77000 (1988) 309000 106000 126000 171000 184000 275000 419000 439000 528000 598000
2024-06-14 10:00 24.83 377000 906000 (2019) 77000 (1988) 309000 106000 126000 171000 184000 275000 419000 439000 528000 598000
2024-06-14 09:30 24.80 377000 906000 (2019) 77000 (1988) 309000 106000 126000 171000 184000 275000 419000 439000 528000 598000
2024-06-14 09:00 24.84 377000 906000 (2019) 77000 (1988) 309000 106000 126000 171000 184000 275000 419000 439000 528000 598000
2024-06-14 08:30 24.78 376000 906000 (2019) 77000 (1988) 309000 106000 126000 171000 184000 275000 419000 439000 528000 598000
2024-06-14 08:00 24.56 372000 906000 (2019) 77000 (1988) 309000 106000 126000 171000 184000 275000 419000 439000 528000 598000
2024-06-14 07:30 24.76 376000 906000 (2019) 77000 (1988) 309000 106000 126000 171000 184000 275000 419000 439000 528000 598000
2024-06-14 07:00 24.74 376000 906000 (2019) 77000 (1988) 309000 106000 126000 171000 184000 275000 419000 439000 528000 598000
2024-06-14 06:30 24.76 376000 906000 (2019) 77000 (1988) 309000 106000 126000 171000 184000 275000 419000 439000 528000 598000
2024-06-14 06:00 24.82 377000 906000 (2019) 77000 (1988) 309000 106000 126000 171000 184000 275000 419000 439000 528000 598000
2024-06-14 05:30 24.83 377000 906000 (2019) 77000 (1988) 309000 106000 126000 171000 184000 275000 419000 439000 528000 598000
2024-06-14 05:00 24.87 378000 906000 (2019) 77000 (1988) 309000 106000 126000 171000 184000 275000 419000 439000 528000 598000
2024-06-14 04:30 24.78 376000 906000 (2019) 77000 (1988) 309000 106000 126000 171000 184000 275000 419000 439000 528000 598000
2024-06-14 04:00 24.70 375000 906000 (2019) 77000 (1988) 309000 106000 126000 171000 184000 275000 419000 439000 528000 598000
2024-06-14 03:30 24.81 377000 906000 (2019) 77000 (1988) 309000 106000 126000 171000 184000 275000 419000 439000 528000 598000
2024-06-14 03:00 24.76 376000 906000 (2019) 77000 (1988) 309000 106000 126000 171000 184000 275000 419000 439000 528000 598000
2024-06-14 02:30 24.80 377000 906000 (2019) 77000 (1988) 309000 106000 126000 171000 184000 275000 419000 439000 528000 598000
2024-06-14 02:00 24.68 375000 906000 (2019) 77000 (1988) 309000 106000 126000 171000 184000 275000 419000 439000 528000 598000
2024-06-14 01:30 24.86 378000 906000 (2019) 77000 (1988) 309000 106000 126000 171000 184000 275000 419000 439000 528000 598000
2024-06-14 01:00 24.86 378000 906000 (2019) 77000 (1988) 309000 106000 126000 171000 184000 275000 419000 439000 528000 598000
2024-06-14 00:30 24.91 379000 906000 (2019) 77000 (1988) 309000 106000 126000 171000 184000 275000 419000 439000 528000 598000
2024-06-14 00:00 24.91 379000 906000 (2019) 77000 (1988) 309000 106000 126000 171000 184000 275000 419000 439000 528000 598000
2024-06-13 23:30 24.83 377000 906000 (2019) 77000 (1988) 309000 106000 126000 171000 184000 275000 419000 439000 528000 598000
2024-06-13 23:00 24.77 376000 906000 (2019) 77000 (1988) 309000 106000 126000 171000 184000 275000 419000 439000 528000 598000
2024-06-13 22:30 24.59 373000 925000 (2019) 80100 (1988) 310000 109000 130000 178000 192000 270000 414000 444000 544000 613000
2024-06-13 22:00 24.91 379000 925000 (2019) 80100 (1988) 310000 109000 130000 178000 192000 270000 414000 444000 544000 613000
2024-06-13 21:30 24.86 378000 925000 (2019) 80100 (1988) 310000 109000 130000 178000 192000 270000 414000 444000 544000 613000
2024-06-13 21:00 24.96 379000 925000 (2019) 80100 (1988) 310000 109000 130000 178000 192000 270000 414000 444000 544000 613000
2024-06-13 20:30 24.91 379000 925000 (2019) 80100 (1988) 310000 109000 130000 178000 192000 270000 414000 444000 544000 613000
2024-06-13 20:00 24.98 380000 925000 (2019) 80100 (1988) 310000 109000 130000 178000 192000 270000 414000 444000 544000 613000
2024-06-13 19:30 24.89 378000 925000 (2019) 80100 (1988) 310000 109000 130000 178000 192000 270000 414000 444000 544000 613000
2024-06-13 19:00 24.93 379000 925000 (2019) 80100 (1988) 310000 109000 130000 178000 192000 270000 414000 444000 544000 613000
2024-06-13 18:30 25.11 382000 925000 (2019) 80100 (1988) 310000 109000 130000 178000 192000 270000 414000 444000 544000 613000
2024-06-13 18:00 25.10 382000 925000 (2019) 80100 (1988) 310000 109000 130000 178000 192000 270000 414000 444000 544000 613000
2024-06-13 17:30 25.05 381000 925000 (2019) 80100 (1988) 310000 109000 130000 178000 192000 270000 414000 444000 544000 613000
2024-06-13 17:00 24.94 379000 925000 (2019) 80100 (1988) 310000 109000 130000 178000 192000 270000 414000 444000 544000 613000
2024-06-13 16:30 25.07 381000 925000 (2019) 80100 (1988) 310000 109000 130000 178000 192000 270000 414000 444000 544000 613000
2024-06-13 16:00 25.03 381000 925000 (2019) 80100 (1988) 310000 109000 130000 178000 192000 270000 414000 444000 544000 613000
2024-06-13 15:30 25.10 382000 925000 (2019) 80100 (1988) 310000 109000 130000 178000 192000 270000 414000 444000 544000 613000
2024-06-13 15:00 24.93 379000 925000 (2019) 80100 (1988) 310000 109000 130000 178000 192000 270000 414000 444000 544000 613000
2024-06-13 14:30 24.89 378000 925000 (2019) 80100 (1988) 310000 109000 130000 178000 192000 270000 414000 444000 544000 613000
2024-06-13 14:00 24.86 378000 925000 (2019) 80100 (1988) 310000 109000 130000 178000 192000 270000 414000 444000 544000 613000
2024-06-13 13:30 25.06 381000 925000 (2019) 80100 (1988) 310000 109000 130000 178000 192000 270000 414000 444000 544000 613000
2024-06-13 13:00 25.06 381000 925000 (2019) 80100 (1988) 310000 109000 130000 178000 192000 270000 414000 444000 544000 613000
2024-06-13 12:30 25.04 381000 925000 (2019) 80100 (1988) 310000 109000 130000 178000 192000 270000 414000 444000 544000 613000
2024-06-13 12:00 24.99 380000 925000 (2019) 80100 (1988) 310000 109000 130000 178000 192000 270000 414000 444000 544000 613000
2024-06-13 11:30 25.04 381000 925000 (2019) 80100 (1988) 310000 109000 130000 178000 192000 270000 414000 444000 544000 613000
2024-06-13 11:00 25.01 380000 925000 (2019) 80100 (1988) 310000 109000 130000 178000 192000 270000 414000 444000 544000 613000
2024-06-13 10:30 25.00 380000 925000 (2019) 80100 (1988) 310000 109000 130000 178000 192000 270000 414000 444000 544000 613000
2024-06-13 10:00 24.95 379000 925000 (2019) 80100 (1988) 310000 109000 130000 178000 192000 270000 414000 444000 544000 613000
2024-06-13 09:30 25.04 381000 925000 (2019) 80100 (1988) 310000 109000 130000 178000 192000 270000 414000 444000 544000 613000
2024-06-13 09:00 24.96 379000 925000 (2019) 80100 (1988) 310000 109000 130000 178000 192000 270000 414000 444000 544000 613000
2024-06-13 08:30 24.95 379000 925000 (2019) 80100 (1988) 310000 109000 130000 178000 192000 270000 414000 444000 544000 613000
2024-06-13 08:00 24.84 377000 925000 (2019) 80100 (1988) 310000 109000 130000 178000 192000 270000 414000 444000 544000 613000
2024-06-13 07:30 24.92 379000 925000 (2019) 80100 (1988) 310000 109000 130000 178000 192000 270000 414000 444000 544000 613000
2024-06-13 07:00 24.78 376000 925000 (2019) 80100 (1988) 310000 109000 130000 178000 192000 270000 414000 444000 544000 613000
2024-06-13 06:30 24.98 380000 925000 (2019) 80100 (1988) 310000 109000 130000 178000 192000 270000 414000 444000 544000 613000
2024-06-13 06:00 24.83 377000 925000 (2019) 80100 (1988) 310000 109000 130000 178000 192000 270000 414000 444000 544000 613000
2024-06-13 05:30 24.92 379000 925000 (2019) 80100 (1988) 310000 109000 130000 178000 192000 270000 414000 444000 544000 613000
2024-06-13 05:00 24.80 377000 925000 (2019) 80100 (1988) 310000 109000 130000 178000 192000 270000 414000 444000 544000 613000
2024-06-13 04:30 24.84 377000 925000 (2019) 80100 (1988) 310000 109000 130000 178000 192000 270000 414000 444000 544000 613000
2024-06-13 04:00 24.83 377000 925000 (2019) 80100 (1988) 310000 109000 130000 178000 192000 270000 414000 444000 544000 613000
2024-06-13 03:30 24.85 378000 925000 (2019) 80100 (1988) 310000 109000 130000 178000 192000 270000 414000 444000 544000 613000
2024-06-13 03:00 24.85 378000 925000 (2019) 80100 (1988) 310000 109000 130000 178000 192000 270000 414000 444000 544000 613000
2024-06-13 02:30 24.89 378000 925000 (2019) 80100 (1988) 310000 109000 130000 178000 192000 270000 414000 444000 544000 613000
2024-06-13 02:00 24.98 380000 925000 (2019) 80100 (1988) 310000 109000 130000 178000 192000 270000 414000 444000 544000 613000
2024-06-13 01:30 24.76 376000 925000 (2019) 80100 (1988) 310000 109000 130000 178000 192000 270000 414000 444000 544000 613000
2024-06-13 01:00 24.95 379000 925000 (2019) 80100 (1988) 310000 109000 130000 178000 192000 270000 414000 444000 544000 613000
2024-06-13 00:30 24.98 380000 925000 (2019) 80100 (1988) 310000 109000 130000 178000 192000 270000 414000 444000 544000 613000
2024-06-13 00:00 24.88 378000 925000 (2019) 80100 (1988) 310000 109000 130000 178000 192000 270000 414000 444000 544000 613000
2024-06-12 23:30 24.83 377000 925000 (2019) 80100 (1988) 310000 109000 130000 178000 192000 270000 414000 444000 544000 613000
2024-06-12 23:00 25.02 381000 925000 (2019) 80100 (1988) 310000 109000 130000 178000 192000 270000 414000 444000 544000 613000
2024-06-12 22:30 25.02 381000 940000 (2019) 82700 (1988) 310000 115000 132000 179000 191000 271000 413000 449000 538000 590000
2024-06-12 22:00 25.00 380000 940000 (2019) 82700 (1988) 310000 115000 132000 179000 191000 271000 413000 449000 538000 590000
2024-06-12 21:30 25.02 381000 940000 (2019) 82700 (1988) 310000 115000 132000 179000 191000 271000 413000 449000 538000 590000
2024-06-12 21:00 24.79 376000 940000 (2019) 82700 (1988) 310000 115000 132000 179000 191000 271000 413000 449000 538000 590000
2024-06-12 20:30 24.67 374000 940000 (2019) 82700 (1988) 310000 115000 132000 179000 191000 271000 413000 449000 538000 590000
2024-06-12 20:00 25.08 382000 940000 (2019) 82700 (1988) 310000 115000 132000 179000 191000 271000 413000 449000 538000 590000
2024-06-12 19:30 24.98 380000 940000 (2019) 82700 (1988) 310000 115000 132000 179000 191000 271000 413000 449000 538000 590000
2024-06-12 19:00 25.09 382000 940000 (2019) 82700 (1988) 310000 115000 132000 179000 191000 271000 413000 449000 538000 590000
2024-06-12 18:30 25.05 381000 940000 (2019) 82700 (1988) 310000 115000 132000 179000 191000 271000 413000 449000 538000 590000
2024-06-12 18:00 25.08 382000 940000 (2019) 82700 (1988) 310000 115000 132000 179000 191000 271000 413000 449000 538000 590000
2024-06-12 17:30 25.13 383000 940000 (2019) 82700 (1988) 310000 115000 132000 179000 191000 271000 413000 449000 538000 590000
2024-06-12 17:00 25.04 381000 940000 (2019) 82700 (1988) 310000 115000 132000 179000 191000 271000 413000 449000 538000 590000
2024-06-12 16:30 25.01 380000 940000 (2019) 82700 (1988) 310000 115000 132000 179000 191000 271000 413000 449000 538000 590000
2024-06-12 16:00 25.07 381000 940000 (2019) 82700 (1988) 310000 115000 132000 179000 191000 271000 413000 449000 538000 590000
2024-06-12 15:30 24.94 379000 940000 (2019) 82700 (1988) 310000 115000 132000 179000 191000 271000 413000 449000 538000 590000
2024-06-12 15:00 24.87 378000 940000 (2019) 82700 (1988) 310000 115000 132000 179000 191000 271000 413000 449000 538000 590000
2024-06-12 14:30 25.02 381000 940000 (2019) 82700 (1988) 310000 115000 132000 179000 191000 271000 413000 449000 538000 590000
2024-06-12 14:00 25.02 381000 940000 (2019) 82700 (1988) 310000 115000 132000 179000 191000 271000 413000 449000 538000 590000
2024-06-12 13:30 24.80 377000 940000 (2019) 82700 (1988) 310000 115000 132000 179000 191000 271000 413000 449000 538000 590000
2024-06-12 13:00 24.95 379000 940000 (2019) 82700 (1988) 310000 115000 132000 179000 191000 271000 413000 449000 538000 590000
2024-06-12 12:30 25.00 380000 940000 (2019) 82700 (1988) 310000 115000 132000 179000 191000 271000 413000 449000 538000 590000
2024-06-12 12:00 24.84 377000 940000 (2019) 82700 (1988) 310000 115000 132000 179000 191000 271000 413000 449000 538000 590000
2024-06-12 11:30 24.86 378000 940000 (2019) 82700 (1988) 310000 115000 132000 179000 191000 271000 413000 449000 538000 590000
2024-06-12 11:00 24.85 378000 940000 (2019) 82700 (1988) 310000 115000 132000 179000 191000 271000 413000 449000 538000 590000
2024-06-12 10:30 24.86 378000 940000 (2019) 82700 (1988) 310000 115000 132000 179000 191000 271000 413000 449000 538000 590000
2024-06-12 10:00 24.86 378000 940000 (2019) 82700 (1988) 310000 115000 132000 179000 191000 271000 413000 449000 538000 590000
2024-06-12 09:30 24.87 378000 940000 (2019) 82700 (1988) 310000 115000 132000 179000 191000 271000 413000 449000 538000 590000
2024-06-12 09:00 24.83 377000 940000 (2019) 82700 (1988) 310000 115000 132000 179000 191000 271000 413000 449000 538000 590000
2024-06-12 08:30 24.82 377000 940000 (2019) 82700 (1988) 310000 115000 132000 179000 191000 271000 413000 449000 538000 590000
2024-06-12 08:00 24.83 377000 940000 (2019) 82700 (1988) 310000 115000 132000 179000 191000 271000 413000 449000 538000 590000
2024-06-12 07:30 24.65 374000 940000 (2019) 82700 (1988) 310000 115000 132000 179000 191000 271000 413000 449000 538000 590000
2024-06-12 07:00 24.74 376000 940000 (2019) 82700 (1988) 310000 115000 132000 179000 191000 271000 413000 449000 538000 590000
2024-06-12 06:30 24.60 373000 940000 (2019) 82700 (1988) 310000 115000 132000 179000 191000 271000 413000 449000 538000 590000
2024-06-12 06:00 24.78 376000 940000 (2019) 82700 (1988) 310000 115000 132000 179000 191000 271000 413000 449000 538000 590000
2024-06-12 05:30 24.73 375000 940000 (2019) 82700 (1988) 310000 115000 132000 179000 191000 271000 413000 449000 538000 590000
2024-06-12 05:00 24.70 375000 940000 (2019) 82700 (1988) 310000 115000 132000 179000 191000 271000 413000 449000 538000 590000
2024-06-12 04:30 24.74 376000 940000 (2019) 82700 (1988) 310000 115000 132000 179000 191000 271000 413000 449000 538000 590000
2024-06-12 04:00 24.67 374000 940000 (2019) 82700 (1988) 310000 115000 132000 179000 191000 271000 413000 449000 538000 590000
2024-06-12 03:30 24.67 374000 940000 (2019) 82700 (1988) 310000 115000 132000 179000 191000 271000 413000 449000 538000 590000
2024-06-12 03:00 24.79 376000 940000 (2019) 82700 (1988) 310000 115000 132000 179000 191000 271000 413000 449000 538000 590000
2024-06-12 02:30 24.78 376000 940000 (2019) 82700 (1988) 310000 115000 132000 179000 191000 271000 413000 449000 538000 590000
2024-06-12 02:00 24.77 376000 940000 (2019) 82700 (1988) 310000 115000 132000 179000 191000 271000 413000 449000 538000 590000
2024-06-12 01:30 24.57 373000 940000 (2019) 82700 (1988) 310000 115000 132000 179000 191000 271000 413000 449000 538000 590000
2024-06-12 01:00 24.75 376000 940000 (2019) 82700 (1988) 310000 115000 132000 179000 191000 271000 413000 449000 538000 590000
2024-06-12 00:30 24.64 374000 940000 (2019) 82700 (1988) 310000 115000 132000 179000 191000 271000 413000 449000 538000 590000
2024-06-12 00:00 24.76 376000 940000 (2019) 82700 (1988) 310000 115000 132000 179000 191000 271000 413000 449000 538000 590000
2024-06-11 23:30 24.74 376000 940000 (2019) 82700 (1988) 310000 115000 132000 179000 191000 271000 413000 449000 538000 590000
2024-06-11 23:00 24.56 372000 940000 (2019) 82700 (1988) 310000 115000 132000 179000 191000 271000 413000 449000 538000 590000
2024-06-11 22:30 24.69 375000 952000 (2019) 85400 (1988) 308000 114000 133000 177000 190000 274000 407000 448000 529000 589000
2024-06-11 22:00 24.77 376000 952000 (2019) 85400 (1988) 308000 114000 133000 177000 190000 274000 407000 448000 529000 589000
2024-06-11 21:30 24.69 375000 952000 (2019) 85400 (1988) 308000 114000 133000 177000 190000 274000 407000 448000 529000 589000
2024-06-11 21:00 24.75 376000 952000 (2019) 85400 (1988) 308000 114000 133000 177000 190000 274000 407000 448000 529000 589000
2024-06-11 20:30 24.79 376000 952000 (2019) 85400 (1988) 308000 114000 133000 177000 190000 274000 407000 448000 529000 589000
2024-06-11 20:00 24.81 377000 952000 (2019) 85400 (1988) 308000 114000 133000 177000 190000 274000 407000 448000 529000 589000
2024-06-11 19:30 24.77 376000 952000 (2019) 85400 (1988) 308000 114000 133000 177000 190000 274000 407000 448000 529000 589000
2024-06-11 19:00 24.87 378000 952000 (2019) 85400 (1988) 308000 114000 133000 177000 190000 274000 407000 448000 529000 589000
2024-06-11 18:30 24.86 378000 952000 (2019) 85400 (1988) 308000 114000 133000 177000 190000 274000 407000 448000 529000 589000
2024-06-11 18:00 24.86 378000 952000 (2019) 85400 (1988) 308000 114000 133000 177000 190000 274000 407000 448000 529000 589000
2024-06-11 17:30 24.90 378000 952000 (2019) 85400 (1988) 308000 114000 133000 177000 190000 274000 407000 448000 529000 589000
2024-06-11 17:00 24.88 378000 952000 (2019) 85400 (1988) 308000 114000 133000 177000 190000 274000 407000 448000 529000 589000
2024-06-11 16:30 24.76 376000 952000 (2019) 85400 (1988) 308000 114000 133000 177000 190000 274000 407000 448000 529000 589000
2024-06-11 16:00 24.78 376000 952000 (2019) 85400 (1988) 308000 114000 133000 177000 190000 274000 407000 448000 529000 589000
2024-06-11 15:30 24.75 376000 952000 (2019) 85400 (1988) 308000 114000 133000 177000 190000 274000 407000 448000 529000 589000
2024-06-11 15:00 24.85 378000 952000 (2019) 85400 (1988) 308000 114000 133000 177000 190000 274000 407000 448000 529000 589000
2024-06-11 14:30 24.76 376000 952000 (2019) 85400 (1988) 308000 114000 133000 177000 190000 274000 407000 448000 529000 589000
2024-06-11 14:00 24.78 376000 952000 (2019) 85400 (1988) 308000 114000 133000 177000 190000 274000 407000 448000 529000 589000
2024-06-11 13:30 24.61 373000 952000 (2019) 85400 (1988) 308000 114000 133000 177000 190000 274000 407000 448000 529000 589000
2024-06-11 13:00 24.77 376000 952000 (2019) 85400 (1988) 308000 114000 133000 177000 190000 274000 407000 448000 529000 589000
2024-06-11 12:30 24.65 374000 952000 (2019) 85400 (1988) 308000 114000 133000 177000 190000 274000 407000 448000 529000 589000
2024-06-11 12:00 24.67 374000 952000 (2019) 85400 (1988) 308000 114000 133000 177000 190000 274000 407000 448000 529000 589000
2024-06-11 11:30 24.67 374000 952000 (2019) 85400 (1988) 308000 114000 133000 177000 190000 274000 407000 448000 529000 589000
2024-06-11 11:00 24.73 375000 952000 (2019) 85400 (1988) 308000 114000 133000 177000 190000 274000 407000 448000 529000 589000
2024-06-11 10:30 24.68 375000 952000 (2019) 85400 (1988) 308000 114000 133000 177000 190000 274000 407000 448000 529000 589000
2024-06-11 10:00 24.66 374000 952000 (2019) 85400 (1988) 308000 114000 133000 177000 190000 274000 407000 448000 529000 589000
2024-06-11 09:30 24.65 374000 952000 (2019) 85400 (1988) 308000 114000 133000 177000 190000 274000 407000 448000 529000 589000
2024-06-11 09:00 24.48 371000 952000 (2019) 85400 (1988) 308000 114000 133000 177000 190000 274000 407000 448000 529000 589000
2024-06-11 08:30 24.54 372000 952000 (2019) 85400 (1988) 308000 114000 133000 177000 190000 274000 407000 448000 529000 589000
2024-06-11 08:00 24.36 369000 952000 (2019) 85400 (1988) 308000 114000 133000 177000 190000 274000 407000 448000 529000 589000
2024-06-11 07:30 24.68 375000 952000 (2019) 85400 (1988) 308000 114000 133000 177000 190000 274000 407000 448000 529000 589000
2024-06-11 07:00 24.64 374000 952000 (2019) 85400 (1988) 308000 114000 133000 177000 190000 274000 407000 448000 529000 589000
2024-06-11 06:30 24.60 373000 952000 (2019) 85400 (1988) 308000 114000 133000 177000 190000 274000 407000 448000 529000 589000
2024-06-11 06:00 24.64 374000 952000 (2019) 85400 (1988) 308000 114000 133000 177000 190000 274000 407000 448000 529000 589000
2024-06-11 05:30 24.46 371000 952000 (2019) 85400 (1988) 308000 114000 133000 177000 190000 274000 407000 448000 529000 589000
2024-06-11 05:00 24.68 375000 952000 (2019) 85400 (1988) 308000 114000 133000 177000 190000 274000 407000 448000 529000 589000
2024-06-11 04:30 24.50 371000 952000 (2019) 85400 (1988) 308000 114000 133000 177000 190000 274000 407000 448000 529000 589000
2024-06-11 04:00 24.54 372000 952000 (2019) 85400 (1988) 308000 114000 133000 177000 190000 274000 407000 448000 529000 589000
2024-06-11 03:30 24.61 373000 952000 (2019) 85400 (1988) 308000 114000 133000 177000 190000 274000 407000 448000 529000 589000
2024-06-11 03:00 24.58 373000 952000 (2019) 85400 (1988) 308000 114000 133000 177000 190000 274000 407000 448000 529000 589000
2024-06-11 02:30 24.71 375000 952000 (2019) 85400 (1988) 308000 114000 133000 177000 190000 274000 407000 448000 529000 589000
2024-06-11 02:00 24.69 375000 952000 (2019) 85400 (1988) 308000 114000 133000 177000 190000 274000 407000 448000 529000 589000
2024-06-11 01:30 24.64 374000 952000 (2019) 85400 (1988) 308000 114000 133000 177000 190000 274000 407000 448000 529000 589000
2024-06-11 01:00 24.79 376000 952000 (2019) 85400 (1988) 308000 114000 133000 177000 190000 274000 407000 448000 529000 589000
2024-06-11 00:30 24.72 375000 952000 (2019) 85400 (1988) 308000 114000 133000 177000 190000 274000 407000 448000 529000 589000
2024-06-11 00:00 24.77 376000 952000 (2019) 85400 (1988) 308000 114000 133000 177000 190000 274000 407000 448000 529000 589000
2024-06-10 23:30 24.38 369000 952000 (2019) 85400 (1988) 308000 114000 133000 177000 190000 274000 407000 448000 529000 589000
2024-06-10 23:00 24.80 377000 952000 (2019) 85400 (1988) 308000 114000 133000 177000 190000 274000 407000 448000 529000 589000
2024-06-10 22:30 24.70 375000 954000 (2019) 90900 (1988) 308000 117000 135000 174000 187000 275000 414000 440000 519000 583000
2024-06-10 22:00 24.71 375000 954000 (2019) 90900 (1988) 308000 117000 135000 174000 187000 275000 414000 440000 519000 583000
2024-06-10 21:30 24.75 376000 954000 (2019) 90900 (1988) 308000 117000 135000 174000 187000 275000 414000 440000 519000 583000
2024-06-10 21:00 24.82 377000 954000 (2019) 90900 (1988) 308000 117000 135000 174000 187000 275000 414000 440000 519000 583000
2024-06-10 20:30 24.77 376000 954000 (2019) 90900 (1988) 308000 117000 135000 174000 187000 275000 414000 440000 519000 583000
2024-06-10 20:00 24.89 378000 954000 (2019) 90900 (1988) 308000 117000 135000 174000 187000 275000 414000 440000 519000 583000
2024-06-10 19:30 24.91 379000 954000 (2019) 90900 (1988) 308000 117000 135000 174000 187000 275000 414000 440000 519000 583000
2024-06-10 19:00 24.85 378000 954000 (2019) 90900 (1988) 308000 117000 135000 174000 187000 275000 414000 440000 519000 583000
2024-06-10 18:30 24.76 376000 954000 (2019) 90900 (1988) 308000 117000 135000 174000 187000 275000 414000 440000 519000 583000
2024-06-10 18:00 24.94 379000 954000 (2019) 90900 (1988) 308000 117000 135000 174000 187000 275000 414000 440000 519000 583000
2024-06-10 17:30 24.98 380000 954000 (2019) 90900 (1988) 308000 117000 135000 174000 187000 275000 414000 440000 519000 583000
2024-06-10 17:00 24.88 378000 954000 (2019) 90900 (1988) 308000 117000 135000 174000 187000 275000 414000 440000 519000 583000
2024-06-10 16:30 24.95 379000 954000 (2019) 90900 (1988) 308000 117000 135000 174000 187000 275000 414000 440000 519000 583000
2024-06-10 16:00 24.91 379000 954000 (2019) 90900 (1988) 308000 117000 135000 174000 187000 275000 414000 440000 519000 583000
2024-06-10 15:30 24.92 379000 954000 (2019) 90900 (1988) 308000 117000 135000 174000 187000 275000 414000 440000 519000 583000
2024-06-10 15:00 25.05 381000 954000 (2019) 90900 (1988) 308000 117000 135000 174000 187000 275000 414000 440000 519000 583000
2024-06-10 14:30 25.02 381000 954000 (2019) 90900 (1988) 308000 117000 135000 174000 187000 275000 414000 440000 519000 583000
2024-06-10 14:00 24.97 380000 954000 (2019) 90900 (1988) 308000 117000 135000 174000 187000 275000 414000 440000 519000 583000
2024-06-10 13:30 24.62 373000 954000 (2019) 90900 (1988) 308000 117000 135000 174000 187000 275000 414000 440000 519000 583000
2024-06-10 13:00 24.95 379000 954000 (2019) 90900 (1988) 308000 117000 135000 174000 187000 275000 414000 440000 519000 583000
2024-06-10 12:30 24.94 379000 954000 (2019) 90900 (1988) 308000 117000 135000 174000 187000 275000 414000 440000 519000 583000
2024-06-10 12:00 24.97 380000 954000 (2019) 90900 (1988) 308000 117000 135000 174000 187000 275000 414000 440000 519000 583000
2024-06-10 11:30 24.88 378000 954000 (2019) 90900 (1988) 308000 117000 135000 174000 187000 275000 414000 440000 519000 583000
2024-06-10 11:00 24.86 378000 954000 (2019) 90900 (1988) 308000 117000 135000 174000 187000 275000 414000 440000 519000 583000
2024-06-10 10:30 24.96 379000 954000 (2019) 90900 (1988) 308000 117000 135000 174000 187000 275000 414000 440000 519000 583000
2024-06-10 10:00 25.09 382000 954000 (2019) 90900 (1988) 308000 117000 135000 174000 187000 275000 414000 440000 519000 583000
2024-06-10 09:30 24.90 378000 954000 (2019) 90900 (1988) 308000 117000 135000 174000 187000 275000 414000 440000 519000 583000
2024-06-10 09:00 24.95 379000 954000 (2019) 90900 (1988) 308000 117000 135000 174000 187000 275000 414000 440000 519000 583000
2024-06-10 08:30 25.05 381000 954000 (2019) 90900 (1988) 308000 117000 135000 174000 187000 275000 414000 440000 519000 583000
2024-06-10 08:00 25.00 380000 954000 (2019) 90900 (1988) 308000 117000 135000 174000 187000 275000 414000 440000 519000 583000
2024-06-10 07:30 24.96 379000 954000 (2019) 90900 (1988) 308000 117000 135000 174000 187000 275000 414000 440000 519000 583000
2024-06-10 07:00 25.05 381000 954000 (2019) 90900 (1988) 308000 117000 135000 174000 187000 275000 414000 440000 519000 583000
2024-06-10 06:30 24.97 380000 954000 (2019) 90900 (1988) 308000 117000 135000 174000 187000 275000 414000 440000 519000 583000
2024-06-10 06:00 24.92 379000 954000 (2019) 90900 (1988) 308000 117000 135000 174000 187000 275000 414000 440000 519000 583000
2024-06-10 05:30 24.79 376000 954000 (2019) 90900 (1988) 308000 117000 135000 174000 187000 275000 414000 440000 519000 583000
2024-06-10 05:00 24.97 380000 954000 (2019) 90900 (1988) 308000 117000 135000 174000 187000 275000 414000 440000 519000 583000
2024-06-10 04:30 25.02 381000 954000 (2019) 90900 (1988) 308000 117000 135000 174000 187000 275000 414000 440000 519000 583000
2024-06-10 04:00 25.01 380000 954000 (2019) 90900 (1988) 308000 117000 135000 174000 187000 275000 414000 440000 519000 583000
2024-06-10 03:30 24.95 379000 954000 (2019) 90900 (1988) 308000 117000 135000 174000 187000 275000 414000 440000 519000 583000
2024-06-10 03:00 25.08 382000 954000 (2019) 90900 (1988) 308000 117000 135000 174000 187000 275000 414000 440000 519000 583000
2024-06-10 02:30 24.99 380000 954000 (2019) 90900 (1988) 308000 117000 135000 174000 187000 275000 414000 440000 519000 583000
2024-06-10 02:00 25.17 383000 954000 (2019) 90900 (1988) 308000 117000 135000 174000 187000 275000 414000 440000 519000 583000
2024-06-10 01:30 25.06 381000 954000 (2019) 90900 (1988) 308000 117000 135000 174000 187000 275000 414000 440000 519000 583000
2024-06-10 01:00 25.09 382000 954000 (2019) 90900 (1988) 308000 117000 135000 174000 187000 275000 414000 440000 519000 583000
2024-06-10 00:30 25.06 381000 954000 (2019) 90900 (1988) 308000 117000 135000 174000 187000 275000 414000 440000 519000 583000
2024-06-10 00:00 25.22 384000 954000 (2019) 90900 (1988) 308000 117000 135000 174000 187000 275000 414000 440000 519000 583000
2024-06-09 23:30 25.15 383000 954000 (2019) 90900 (1988) 308000 117000 135000 174000 187000 275000 414000 440000 519000 583000
2024-06-09 23:00 25.15 383000 954000 (2019) 90900 (1988) 308000 117000 135000 174000 187000 275000 414000 440000 519000 583000
2024-06-09 22:30 25.14 383000 951000 (2019) 86100 (1988) 311000 116000 136000 175000 184000 280000 416000 437000 510000 588000
2024-06-09 22:00 25.21 384000 951000 (2019) 86100 (1988) 311000 116000 136000 175000 184000 280000 416000 437000 510000 588000
2024-06-09 21:30 25.14 383000 951000 (2019) 86100 (1988) 311000 116000 136000 175000 184000 280000 416000 437000 510000 588000
2024-06-09 21:00 25.24 385000 951000 (2019) 86100 (1988) 311000 116000 136000 175000 184000 280000 416000 437000 510000 588000
2024-06-09 20:30 25.15 383000 951000 (2019) 86100 (1988) 311000 116000 136000 175000 184000 280000 416000 437000 510000 588000
2024-06-09 20:00 25.04 381000 951000 (2019) 86100 (1988) 311000 116000 136000 175000 184000 280000 416000 437000 510000 588000
2024-06-09 19:30 25.39 387000 951000 (2019) 86100 (1988) 311000 116000 136000 175000 184000 280000 416000 437000 510000 588000
2024-06-09 19:00 25.22 384000 951000 (2019) 86100 (1988) 311000 116000 136000 175000 184000 280000 416000 437000 510000 588000
2024-06-09 18:30 25.18 383000 951000 (2019) 86100 (1988) 311000 116000 136000 175000 184000 280000 416000 437000 510000 588000
2024-06-09 18:00 25.24 385000 951000 (2019) 86100 (1988) 311000 116000 136000 175000 184000 280000 416000 437000 510000 588000
2024-06-09 17:30 25.20 384000 951000 (2019) 86100 (1988) 311000 116000 136000 175000 184000 280000 416000 437000 510000 588000
2024-06-09 17:00 25.29 385000 951000 (2019) 86100 (1988) 311000 116000 136000 175000 184000 280000 416000 437000 510000 588000
2024-06-09 16:30 25.29 385000 951000 (2019) 86100 (1988) 311000 116000 136000 175000 184000 280000 416000 437000 510000 588000
2024-06-09 16:00 25.03 381000 951000 (2019) 86100 (1988) 311000 116000 136000 175000 184000 280000 416000 437000 510000 588000
2024-06-09 15:30 25.31 386000 951000 (2019) 86100 (1988) 311000 116000 136000 175000 184000 280000 416000 437000 510000 588000
2024-06-09 15:00 25.12 382000 951000 (2019) 86100 (1988) 311000 116000 136000 175000 184000 280000 416000 437000 510000 588000
2024-06-09 14:30 25.24 385000 951000 (2019) 86100 (1988) 311000 116000 136000 175000 184000 280000 416000 437000 510000 588000
2024-06-09 14:00 24.95 379000 951000 (2019) 86100 (1988) 311000 116000 136000 175000 184000 280000 416000 437000 510000 588000
2024-06-09 13:30 25.32 386000 951000 (2019) 86100 (1988) 311000 116000 136000 175000 184000 280000 416000 437000 510000 588000
2024-06-09 13:00 25.29 385000 951000 (2019) 86100 (1988) 311000 116000 136000 175000 184000 280000 416000 437000 510000 588000
2024-06-09 12:30 25.17 383000 951000 (2019) 86100 (1988) 311000 116000 136000 175000 184000 280000 416000 437000 510000 588000
2024-06-09 12:00 25.32 386000 951000 (2019) 86100 (1988) 311000 116000 136000 175000 184000 280000 416000 437000 510000 588000
2024-06-09 11:30 25.33 386000 951000 (2019) 86100 (1988) 311000 116000 136000 175000 184000 280000 416000 437000 510000 588000
2024-06-09 11:00 25.20 384000 951000 (2019) 86100 (1988) 311000 116000 136000 175000 184000 280000 416000 437000 510000 588000
2024-06-09 10:30 25.29 385000 951000 (2019) 86100 (1988) 311000 116000 136000 175000 184000 280000 416000 437000 510000 588000
2024-06-09 10:00 25.35 387000 951000 (2019) 86100 (1988) 311000 116000 136000 175000 184000 280000 416000 437000 510000 588000
2024-06-09 09:30 25.26 385000 951000 (2019) 86100 (1988) 311000 116000 136000 175000 184000 280000 416000 437000 510000 588000
2024-06-09 09:00 25.30 386000 951000 (2019) 86100 (1988) 311000 116000 136000 175000 184000 280000 416000 437000 510000 588000
2024-06-09 08:30 25.38 387000 951000 (2019) 86100 (1988) 311000 116000 136000 175000 184000 280000 416000 437000 510000 588000
2024-06-09 08:00 25.17 383000 951000 (2019) 86100 (1988) 311000 116000 136000 175000 184000 280000 416000 437000 510000 588000
2024-06-09 07:30 25.36 387000 951000 (2019) 86100 (1988) 311000 116000 136000 175000 184000 280000 416000 437000 510000 588000
2024-06-09 07:00 25.41 388000 951000 (2019) 86100 (1988) 311000 116000 136000 175000 184000 280000 416000 437000 510000 588000
2024-06-09 06:30 25.34 386000 951000 (2019) 86100 (1988) 311000 116000 136000 175000 184000 280000 416000 437000 510000 588000
2024-06-09 06:00 25.15 383000 951000 (2019) 86100 (1988) 311000 116000 136000 175000 184000 280000 416000 437000 510000 588000
2024-06-09 05:30 25.41 388000 951000 (2019) 86100 (1988) 311000 116000 136000 175000 184000 280000 416000 437000 510000 588000
2024-06-09 05:00 25.39 387000 951000 (2019) 86100 (1988) 311000 116000 136000 175000 184000 280000 416000 437000 510000 588000
2024-06-09 04:30 25.41 388000 951000 (2019) 86100 (1988) 311000 116000 136000 175000 184000 280000 416000 437000 510000 588000
2024-06-09 04:00 25.41 388000 951000 (2019) 86100 (1988) 311000 116000 136000 175000 184000 280000 416000 437000 510000 588000
2024-06-09 03:30 25.40 387000 951000 (2019) 86100 (1988) 311000 116000 136000 175000 184000 280000 416000 437000 510000 588000
2024-06-09 03:00 25.23 384000 951000 (2019) 86100 (1988) 311000 116000 136000 175000 184000 280000 416000 437000 510000 588000
2024-06-09 02:30 25.16 383000 951000 (2019) 86100 (1988) 311000 116000 136000 175000 184000 280000 416000 437000 510000 588000
2024-06-09 02:00 25.55 390000 951000 (2019) 86100 (1988) 311000 116000 136000 175000 184000 280000 416000 437000 510000 588000
2024-06-09 01:30 25.51 389000 951000 (2019) 86100 (1988) 311000 116000 136000 175000 184000 280000 416000 437000 510000 588000
2024-06-09 01:00 25.45 388000 951000 (2019) 86100 (1988) 311000 116000 136000 175000 184000 280000 416000 437000 510000 588000
2024-06-09 00:30 25.51 389000 951000 (2019) 86100 (1988) 311000 116000 136000 175000 184000 280000 416000 437000 510000 588000
2024-06-09 00:00 25.52 390000 951000 (2019) 86100 (1988) 311000 116000 136000 175000 184000 280000 416000 437000 510000 588000
2024-06-08 23:30 25.52 390000 951000 (2019) 86100 (1988) 311000 116000 136000 175000 184000 280000 416000 437000 510000 588000
2024-06-08 23:00 25.48 389000 951000 (2019) 86100 (1988) 311000 116000 136000 175000 184000 280000 416000 437000 510000 588000
2024-06-08 22:30 25.47 389000 939000 (2019) 90000 (1988) 313000 113000 133000 177000 193000 285000 399000 435000 508000 600000
2024-06-08 22:00 25.38 387000 939000 (2019) 90000 (1988) 313000 113000 133000 177000 193000 285000 399000 435000 508000 600000
2024-06-08 21:30 25.60 391000 939000 (2019) 90000 (1988) 313000 113000 133000 177000 193000 285000 399000 435000 508000 600000
2024-06-08 21:00 25.33 386000 939000 (2019) 90000 (1988) 313000 113000 133000 177000 193000 285000 399000 435000 508000 600000
2024-06-08 20:30 25.45 388000 939000 (2019) 90000 (1988) 313000 113000 133000 177000 193000 285000 399000 435000 508000 600000
2024-06-08 20:00 25.58 391000 939000 (2019) 90000 (1988) 313000 113000 133000 177000 193000 285000 399000 435000 508000 600000
2024-06-08 19:30 25.60 391000 939000 (2019) 90000 (1988) 313000 113000 133000 177000 193000 285000 399000 435000 508000 600000
2024-06-08 19:00 25.67 392000 939000 (2019) 90000 (1988) 313000 113000 133000 177000 193000 285000 399000 435000 508000 600000
2024-06-08 18:30 25.61 391000 939000 (2019) 90000 (1988) 313000 113000 133000 177000 193000 285000 399000 435000 508000 600000
2024-06-08 18:00 25.70 393000 939000 (2019) 90000 (1988) 313000 113000 133000 177000 193000 285000 399000 435000 508000 600000
2024-06-08 17:30 25.58 391000 939000 (2019) 90000 (1988) 313000 113000 133000 177000 193000 285000 399000 435000 508000 600000
2024-06-08 17:00 25.71 393000 939000 (2019) 90000 (1988) 313000 113000 133000 177000 193000 285000 399000 435000 508000 600000
2024-06-08 16:30 25.64 392000 939000 (2019) 90000 (1988) 313000 113000 133000 177000 193000 285000 399000 435000 508000 600000
2024-06-08 16:00 25.65 392000 939000 (2019) 90000 (1988) 313000 113000 133000 177000 193000 285000 399000 435000 508000 600000
2024-06-08 15:30 25.65 392000 939000 (2019) 90000 (1988) 313000 113000 133000 177000 193000 285000 399000 435000 508000 600000
2024-06-08 15:00 25.30 386000 939000 (2019) 90000 (1988) 313000 113000 133000 177000 193000 285000 399000 435000 508000 600000
2024-06-08 14:30 25.51 389000 939000 (2019) 90000 (1988) 313000 113000 133000 177000 193000 285000 399000 435000 508000 600000
2024-06-08 14:00 25.63 392000 939000 (2019) 90000 (1988) 313000 113000 133000 177000 193000 285000 399000 435000 508000 600000
2024-06-08 13:30 25.64 392000 939000 (2019) 90000 (1988) 313000 113000 133000 177000 193000 285000 399000 435000 508000 600000
2024-06-08 13:00 25.52 390000 939000 (2019) 90000 (1988) 313000 113000 133000 177000 193000 285000 399000 435000 508000 600000
2024-06-08 12:30 25.49 389000 939000 (2019) 90000 (1988) 313000 113000 133000 177000 193000 285000 399000 435000 508000 600000
2024-06-08 12:00 25.56 390000 939000 (2019) 90000 (1988) 313000 113000 133000 177000 193000 285000 399000 435000 508000 600000
2024-06-08 11:30 25.57 391000 939000 (2019) 90000 (1988) 313000 113000 133000 177000 193000 285000 399000 435000 508000 600000
2024-06-08 11:00 25.63 392000 939000 (2019) 90000 (1988) 313000 113000 133000 177000 193000 285000 399000 435000 508000 600000
2024-06-08 10:30 25.66 392000 939000 (2019) 90000 (1988) 313000 113000 133000 177000 193000 285000 399000 435000 508000 600000
2024-06-08 10:00 25.34 386000 939000 (2019) 90000 (1988) 313000 113000 133000 177000 193000 285000 399000 435000 508000 600000
2024-06-08 09:30 25.57 391000 939000 (2019) 90000 (1988) 313000 113000 133000 177000 193000 285000 399000 435000 508000 600000
2024-06-08 09:00 25.52 390000 939000 (2019) 90000 (1988) 313000 113000 133000 177000 193000 285000 399000 435000 508000 600000
2024-06-08 08:30 25.60 391000 939000 (2019) 90000 (1988) 313000 113000 133000 177000 193000 285000 399000 435000 508000 600000
2024-06-08 08:00 25.63 392000 939000 (2019) 90000 (1988) 313000 113000 133000 177000 193000 285000 399000 435000 508000 600000
2024-06-08 07:30 25.64 392000 939000 (2019) 90000 (1988) 313000 113000 133000 177000 193000 285000 399000 435000 508000 600000
2024-06-08 07:00 25.72 393000 939000 (2019) 90000 (1988) 313000 113000 133000 177000 193000 285000 399000 435000 508000 600000
2024-06-08 06:30 25.58 391000 939000 (2019) 90000 (1988) 313000 113000 133000 177000 193000 285000 399000 435000 508000 600000
2024-06-08 06:00 25.70 393000 939000 (2019) 90000 (1988) 313000 113000 133000 177000 193000 285000 399000 435000 508000 600000
2024-06-08 05:30 25.66 392000 939000 (2019) 90000 (1988) 313000 113000 133000 177000 193000 285000 399000 435000 508000 600000
2024-06-08 05:00 25.54 390000 939000 (2019) 90000 (1988) 313000 113000 133000 177000 193000 285000 399000 435000 508000 600000
2024-06-08 04:30 25.74 394000 939000 (2019) 90000 (1988) 313000 113000 133000 177000 193000 285000 399000 435000 508000 600000
2024-06-08 04:00 25.81 395000 939000 (2019) 90000 (1988) 313000 113000 133000 177000 193000 285000 399000 435000 508000 600000
2024-06-08 03:30 25.74 394000 939000 (2019) 90000 (1988) 313000 113000 133000 177000 193000 285000 399000 435000 508000 600000
2024-06-08 03:00 25.76 394000 939000 (2019) 90000 (1988) 313000 113000 133000 177000 193000 285000 399000 435000 508000 600000
2024-06-08 02:30 25.79 395000 939000 (2019) 90000 (1988) 313000 113000 133000 177000 193000 285000 399000 435000 508000 600000
2024-06-08 02:00 25.80 395000 939000 (2019) 90000 (1988) 313000 113000 133000 177000 193000 285000 399000 435000 508000 600000
2024-06-08 01:30 25.79 395000 939000 (2019) 90000 (1988) 313000 113000 133000 177000 193000 285000 399000 435000 508000 600000
2024-06-08 01:00 25.71 393000 939000 (2019) 90000 (1988) 313000 113000 133000 177000 193000 285000 399000 435000 508000 600000
2024-06-08 00:30 25.73 393000 939000 (2019) 90000 (1988) 313000 113000 133000 177000 193000 285000 399000 435000 508000 600000
2024-06-08 00:00 25.84 396000 939000 (2019) 90000 (1988) 313000 113000 133000 177000 193000 285000 399000 435000 508000 600000
2024-06-07 23:30 25.89 396000 939000 (2019) 90000 (1988) 313000 113000 133000 177000 193000 285000 399000 435000 508000 600000
2024-06-07 23:00 25.89 396000 939000 (2019) 90000 (1988) 313000 113000 133000 177000 193000 285000 399000 435000 508000 600000

A total of 339 rows are displayed for years 1943 through 2023.